sensor_id;sensor_type;location;lat;lon;timestamp;P1;durP1;ratioP1;P2;durP2;ratioP2
13720;SDS011;6932;51.438;5.470;2022-12-19T00:01:25;19.70;;;12.53;;
13720;SDS011;6932;51.438;5.470;2022-12-19T00:03:57;20.73;;;12.97;;
13720;SDS011;6932;51.438;5.470;2022-12-19T00:06:29;20.37;;;12.40;;
13720;SDS011;6932;51.438;5.470;2022-12-19T00:08:55;21.70;;;12.60;;
13720;SDS011;6932;51.438;5.470;2022-12-19T00:11:25;20.53;;;12.60;;
13720;SDS011;6932;51.438;5.470;2022-12-19T00:13:53;20.87;;;12.90;;
13720;SDS011;6932;51.438;5.470;2022-12-19T00:16:20;20.10;;;12.80;;
13720;SDS011;6932;51.438;5.470;2022-12-19T00:18:49;21.30;;;12.30;;
13720;SDS011;6932;51.438;5.470;2022-12-19T00:21:18;19.87;;;12.67;;
13720;SDS011;6932;51.438;5.470;2022-12-19T00:23:46;19.93;;;11.97;;
13720;SDS011;6932;51.438;5.470;2022-12-19T00:26:20;21.27;;;13.17;;
13720;SDS011;6932;51.438;5.470;2022-12-19T00:28:48;21.13;;;12.80;;
13720;SDS011;6932;51.438;5.470;2022-12-19T00:31:18;19.97;;;12.13;;
13720;SDS011;6932;51.438;5.470;2022-12-19T00:33:46;22.07;;;13.43;;
13720;SDS011;6932;51.438;5.470;2022-12-19T00:36:14;19.63;;;12.00;;
13720;SDS011;6932;51.438;5.470;2022-12-19T00:38:45;20.57;;;13.37;;
13720;SDS011;6932;51.438;5.470;2022-12-19T00:41:13;21.50;;;12.70;;
13720;SDS011;6932;51.438;5.470;2022-12-19T00:43:44;21.57;;;13.07;;
13720;SDS011;6932;51.438;5.470;2022-12-19T00:46:17;20.47;;;12.40;;
13720;SDS011;6932;51.438;5.470;2022-12-19T00:48:43;19.70;;;12.13;;
13720;SDS011;6932;51.438;5.470;2022-12-19T00:51:10;20.00;;;12.17;;
13720;SDS011;6932;51.438;5.470;2022-12-19T00:53:42;20.67;;;12.43;;
13720;SDS011;6932;51.438;5.470;2022-12-19T00:56:10;18.63;;;11.83;;
13720;SDS011;6932;51.438;5.470;2022-12-19T00:58:40;19.90;;;12.13;;
13720;SDS011;6932;51.438;5.470;2022-12-19T01:01:08;19.50;;;12.07;;
13720;SDS011;6932;51.438;5.470;2022-12-19T01:03:40;19.77;;;12.40;;
13720;SDS011;6932;51.438;5.470;2022-12-19T01:06:06;20.63;;;12.70;;
13720;SDS011;6932;51.438;5.470;2022-12-19T01:08:33;21.00;;;12.87;;
13720;SDS011;6932;51.438;5.470;2022-12-19T01:10:59;19.67;;;12.37;;
13720;SDS011;6932;51.438;5.470;2022-12-19T01:13:25;20.77;;;12.90;;
13720;SDS011;6932;51.438;5.470;2022-12-19T01:15:54;19.97;;;12.20;;
13720;SDS011;6932;51.438;5.470;2022-12-19T01:18:20;21.33;;;12.63;;
13720;SDS011;6932;51.438;5.470;2022-12-19T01:20:46;20.63;;;12.73;;
13720;SDS011;6932;51.438;5.470;2022-12-19T01:23:13;19.90;;;12.23;;
13720;SDS011;6932;51.438;5.470;2022-12-19T01:25:40;19.80;;;12.40;;
13720;SDS011;6932;51.438;5.470;2022-12-19T01:28:09;20.33;;;12.83;;
13720;SDS011;6932;51.438;5.470;2022-12-19T01:30:39;19.03;;;11.90;;
13720;SDS011;6932;51.438;5.470;2022-12-19T01:33:05;20.30;;;12.40;;
13720;SDS011;6932;51.438;5.470;2022-12-19T01:35:34;20.90;;;13.00;;
13720;SDS011;6932;51.438;5.470;2022-12-19T01:38:00;19.33;;;11.70;;
13720;SDS011;6932;51.438;5.470;2022-12-19T01:40:26;20.13;;;12.33;;
13720;SDS011;6932;51.438;5.470;2022-12-19T01:43:02;19.23;;;12.03;;
13720;SDS011;6932;51.438;5.470;2022-12-19T01:45:32;19.33;;;12.23;;
13720;SDS011;6932;51.438;5.470;2022-12-19T01:53:21;20.03;;;12.37;;
13720;SDS011;6932;51.438;5.470;2022-12-19T01:55:51;20.60;;;13.20;;
13720;SDS011;6932;51.438;5.470;2022-12-19T01:58:18;19.63;;;12.30;;
13720;SDS011;6932;51.438;5.470;2022-12-19T02:00:44;20.70;;;12.63;;
13720;SDS011;6932;51.438;5.470;2022-12-19T02:05:52;17.97;;;11.50;;
13720;SDS011;6932;51.438;5.470;2022-12-19T02:08:20;18.83;;;11.90;;
13720;SDS011;6932;51.438;5.470;2022-12-19T02:10:50;18.83;;;11.63;;
13720;SDS011;6932;51.438;5.470;2022-12-19T02:13:16;19.33;;;12.23;;
13720;SDS011;6932;51.438;5.470;2022-12-19T02:15:46;18.40;;;11.13;;
13720;SDS011;6932;51.438;5.470;2022-12-19T02:18:37;18.10;;;11.37;;
13720;SDS011;6932;51.438;5.470;2022-12-19T02:30:43;19.10;;;11.30;;
13720;SDS011;6932;51.438;5.470;2022-12-19T02:33:34;18.07;;;10.40;;
13720;SDS011;6932;51.438;5.470;2022-12-19T02:39:07;17.73;;;10.63;;
13720;SDS011;6932;51.438;5.470;2022-12-19T02:41:43;17.50;;;10.97;;
13720;SDS011;6932;51.438;5.470;2022-12-19T02:44:28;17.73;;;11.03;;
13720;SDS011;6932;51.438;5.470;2022-12-19T02:47:03;18.27;;;10.93;;
13720;SDS011;6932;51.438;5.470;2022-12-19T02:49:32;19.00;;;10.90;;
13720;SDS011;6932;51.438;5.470;2022-12-19T02:52:41;18.73;;;11.27;;
13720;SDS011;6932;51.438;5.470;2022-12-19T02:54:59;17.13;;;10.37;;
13720;SDS011;6932;51.438;5.470;2022-12-19T02:58:08;17.77;;;10.70;;
13720;SDS011;6932;51.438;5.470;2022-12-19T03:00:41;17.40;;;10.67;;
13720;SDS011;6932;51.438;5.470;2022-12-19T03:06:25;17.17;;;10.90;;
13720;SDS011;6932;51.438;5.470;2022-12-19T03:12:59;16.70;;;9.70;;
13720;SDS011;6932;51.438;5.470;2022-12-19T03:15:30;14.93;;;9.20;;
13720;SDS011;6932;51.438;5.470;2022-12-19T03:17:57;14.50;;;8.43;;
13720;SDS011;6932;51.438;5.470;2022-12-19T03:23:13;15.20;;;8.67;;
13720;SDS011;6932;51.438;5.470;2022-12-19T03:25:40;16.30;;;8.63;;
13720;SDS011;6932;51.438;5.470;2022-12-19T03:28:15;14.47;;;8.43;;
13720;SDS011;6932;51.438;5.470;2022-12-19T03:30:51;15.03;;;8.20;;
13720;SDS011;6932;51.438;5.470;2022-12-19T03:33:19;13.53;;;7.80;;
13720;SDS011;6932;51.438;5.470;2022-12-19T03:35:47;13.23;;;7.77;;
13720;SDS011;6932;51.438;5.470;2022-12-19T03:38:15;13.23;;;7.10;;
13720;SDS011;6932;51.438;5.470;2022-12-19T03:40:44;12.00;;;6.83;;
13720;SDS011;6932;51.438;5.470;2022-12-19T03:43:12;11.37;;;6.80;;
13720;SDS011;6932;51.438;5.470;2022-12-19T03:54:26;11.77;;;6.53;;
13720;SDS011;6932;51.438;5.470;2022-12-19T03:56:59;11.10;;;6.20;;
13720;SDS011;6932;51.438;5.470;2022-12-19T03:59:54;10.40;;;6.07;;
13720;SDS011;6932;51.438;5.470;2022-12-19T04:02:31;11.20;;;6.37;;
13720;SDS011;6932;51.438;5.470;2022-12-19T04:05:06;11.37;;;6.00;;
13720;SDS011;6932;51.438;5.470;2022-12-19T04:07:36;10.20;;;6.20;;
13720;SDS011;6932;51.438;5.470;2022-12-19T04:10:04;9.63;;;5.63;;
13720;SDS011;6932;51.438;5.470;2022-12-19T04:12:37;9.60;;;5.83;;
13720;SDS011;6932;51.438;5.470;2022-12-19T04:15:08;11.20;;;6.10;;
13720;SDS011;6932;51.438;5.470;2022-12-19T04:20:19;9.63;;;5.27;;
13720;SDS011;6932;51.438;5.470;2022-12-19T04:25:36;9.87;;;5.40;;
13720;SDS011;6932;51.438;5.470;2022-12-19T04:28:11;8.43;;;5.27;;
13720;SDS011;6932;51.438;5.470;2022-12-19T04:30:46;9.57;;;5.20;;
13720;SDS011;6932;51.438;5.470;2022-12-19T04:33:13;8.90;;;5.17;;
13720;SDS011;6932;51.438;5.470;2022-12-19T04:35:39;8.67;;;4.97;;
13720;SDS011;6932;51.438;5.470;2022-12-19T04:38:05;8.40;;;4.70;;
13720;SDS011;6932;51.438;5.470;2022-12-19T04:40:32;7.60;;;4.80;;
13720;SDS011;6932;51.438;5.470;2022-12-19T04:43:00;8.37;;;4.97;;
13720;SDS011;6932;51.438;5.470;2022-12-19T04:45:25;8.90;;;5.27;;
13720;SDS011;6932;51.438;5.470;2022-12-19T04:47:51;7.83;;;4.80;;
13720;SDS011;6932;51.438;5.470;2022-12-19T04:50:17;9.60;;;4.80;;
13720;SDS011;6932;51.438;5.470;2022-12-19T04:52:43;9.43;;;5.40;;
13720;SDS011;6932;51.438;5.470;2022-12-19T04:55:09;9.33;;;5.03;;
13720;SDS011;6932;51.438;5.470;2022-12-19T04:57:34;8.27;;;4.70;;
13720;SDS011;6932;51.438;5.470;2022-12-19T05:00:00;7.77;;;4.60;;
13720;SDS011;6932;51.438;5.470;2022-12-19T05:02:29;8.43;;;4.40;;
13720;SDS011;6932;51.438;5.470;2022-12-19T05:04:54;7.97;;;4.77;;
13720;SDS011;6932;51.438;5.470;2022-12-19T05:07:20;8.00;;;4.60;;
13720;SDS011;6932;51.438;5.470;2022-12-19T05:09:46;7.97;;;4.37;;
13720;SDS011;6932;51.438;5.470;2022-12-19T05:12:11;7.80;;;4.60;;
13720;SDS011;6932;51.438;5.470;2022-12-19T05:14:37;8.30;;;4.43;;
13720;SDS011;6932;51.438;5.470;2022-12-19T05:17:03;7.17;;;4.27;;
13720;SDS011;6932;51.438;5.470;2022-12-19T05:19:29;6.87;;;4.27;;
13720;SDS011;6932;51.438;5.470;2022-12-19T05:21:55;7.33;;;4.70;;
13720;SDS011;6932;51.438;5.470;2022-12-19T05:24:21;6.77;;;3.90;;
13720;SDS011;6932;51.438;5.470;2022-12-19T05:26:47;8.47;;;4.50;;
13720;SDS011;6932;51.438;5.470;2022-12-19T05:29:14;7.30;;;4.30;;
13720;SDS011;6932;51.438;5.470;2022-12-19T05:31:41;6.63;;;4.13;;
13720;SDS011;6932;51.438;5.470;2022-12-19T05:34:07;7.73;;;4.20;;
13720;SDS011;6932;51.438;5.470;2022-12-19T05:36:32;6.63;;;4.00;;
13720;SDS011;6932;51.438;5.470;2022-12-19T05:38:58;6.50;;;4.17;;
13720;SDS011;6932;51.438;5.470;2022-12-19T05:41:24;6.00;;;3.90;;
13720;SDS011;6932;51.438;5.470;2022-12-19T05:43:51;6.97;;;3.97;;
13720;SDS011;6932;51.438;5.470;2022-12-19T05:46:19;7.50;;;4.07;;
13720;SDS011;6932;51.438;5.470;2022-12-19T05:48:46;7.63;;;4.07;;
13720;SDS011;6932;51.438;5.470;2022-12-19T05:51:12;7.40;;;4.20;;
13720;SDS011;6932;51.438;5.470;2022-12-19T05:53:38;5.90;;;3.57;;
13720;SDS011;6932;51.438;5.470;2022-12-19T05:56:10;6.53;;;4.00;;
13720;SDS011;6932;51.438;5.470;2022-12-19T05:58:41;6.07;;;3.60;;
13720;SDS011;6932;51.438;5.470;2022-12-19T06:01:17;5.93;;;3.70;;
13720;SDS011;6932;51.438;5.470;2022-12-19T06:03:49;5.93;;;3.70;;
13720;SDS011;6932;51.438;5.470;2022-12-19T06:06:17;6.13;;;3.77;;
13720;SDS011;6932;51.438;5.470;2022-12-19T06:08:45;5.33;;;3.60;;
13720;SDS011;6932;51.438;5.470;2022-12-19T06:11:12;6.60;;;3.50;;
13720;SDS011;6932;51.438;5.470;2022-12-19T06:13:39;5.47;;;3.60;;
13720;SDS011;6932;51.438;5.470;2022-12-19T06:16:10;5.73;;;3.90;;
13720;SDS011;6932;51.438;5.470;2022-12-19T06:18:39;5.33;;;3.73;;
13720;SDS011;6932;51.438;5.470;2022-12-19T06:21:09;6.37;;;3.77;;
13720;SDS011;6932;51.438;5.470;2022-12-19T06:23:44;5.47;;;3.70;;
13720;SDS011;6932;51.438;5.470;2022-12-19T06:26:12;6.17;;;3.60;;
13720;SDS011;6932;51.438;5.470;2022-12-19T06:28:40;5.60;;;3.40;;
13720;SDS011;6932;51.438;5.470;2022-12-19T06:31:06;7.10;;;3.70;;
13720;SDS011;6932;51.438;5.470;2022-12-19T06:33:32;5.13;;;3.50;;
13720;SDS011;6932;51.438;5.470;2022-12-19T06:35:59;5.80;;;3.53;;
13720;SDS011;6932;51.438;5.470;2022-12-19T06:38:31;6.00;;;3.33;;
13720;SDS011;6932;51.438;5.470;2022-12-19T06:40:59;5.57;;;3.20;;
13720;SDS011;6932;51.438;5.470;2022-12-19T06:43:45;5.90;;;3.53;;
13720;SDS011;6932;51.438;5.470;2022-12-19T06:46:11;5.50;;;3.63;;
13720;SDS011;6932;51.438;5.470;2022-12-19T06:48:37;5.03;;;3.57;;
13720;SDS011;6932;51.438;5.470;2022-12-19T06:51:03;6.50;;;3.47;;
13720;SDS011;6932;51.438;5.470;2022-12-19T06:53:28;5.37;;;3.40;;
13720;SDS011;6932;51.438;5.470;2022-12-19T06:55:56;4.80;;;3.40;;
13720;SDS011;6932;51.438;5.470;2022-12-19T06:58:23;6.40;;;3.60;;
13720;SDS011;6932;51.438;5.470;2022-12-19T07:00:50;5.37;;;3.57;;
13720;SDS011;6932;51.438;5.470;2022-12-19T07:03:18;5.60;;;3.77;;
13720;SDS011;6932;51.438;5.470;2022-12-19T07:05:51;6.57;;;3.67;;
13720;SDS011;6932;51.438;5.470;2022-12-19T07:08:17;5.10;;;3.20;;
13720;SDS011;6932;51.438;5.470;2022-12-19T07:10:43;4.60;;;3.40;;
13720;SDS011;6932;51.438;5.470;2022-12-19T07:13:09;5.27;;;3.37;;
13720;SDS011;6932;51.438;5.470;2022-12-19T07:15:34;5.30;;;3.50;;
13720;SDS011;6932;51.438;5.470;2022-12-19T07:18:02;6.23;;;3.60;;
13720;SDS011;6932;51.438;5.470;2022-12-19T07:20:31;6.07;;;3.60;;
13720;SDS011;6932;51.438;5.470;2022-12-19T07:23:00;5.33;;;3.10;;
13720;SDS011;6932;51.438;5.470;2022-12-19T07:25:28;5.57;;;3.73;;
13720;SDS011;6932;51.438;5.470;2022-12-19T07:27:55;5.77;;;3.47;;
13720;SDS011;6932;51.438;5.470;2022-12-19T07:30:21;5.40;;;3.20;;
13720;SDS011;6932;51.438;5.470;2022-12-19T07:32:47;5.70;;;3.67;;
13720;SDS011;6932;51.438;5.470;2022-12-19T07:35:13;6.47;;;3.47;;
13720;SDS011;6932;51.438;5.470;2022-12-19T07:37:38;5.50;;;3.30;;
13720;SDS011;6932;51.438;5.470;2022-12-19T07:40:04;4.53;;;3.07;;
13720;SDS011;6932;51.438;5.470;2022-12-19T07:42:31;7.03;;;3.80;;
13720;SDS011;6932;51.438;5.470;2022-12-19T07:44:58;4.83;;;3.23;;
13720;SDS011;6932;51.438;5.470;2022-12-19T07:47:25;5.27;;;3.43;;
13720;SDS011;6932;51.438;5.470;2022-12-19T07:49:51;5.57;;;3.30;;
13720;SDS011;6932;51.438;5.470;2022-12-19T07:52:17;5.57;;;3.63;;
13720;SDS011;6932;51.438;5.470;2022-12-19T07:54:44;5.23;;;3.50;;
13720;SDS011;6932;51.438;5.470;2022-12-19T07:57:09;5.80;;;3.77;;
13720;SDS011;6932;51.438;5.470;2022-12-19T07:59:35;6.07;;;3.50;;
13720;SDS011;6932;51.438;5.470;2022-12-19T08:02:01;6.60;;;3.80;;
13720;SDS011;6932;51.438;5.470;2022-12-19T08:04:26;7.00;;;3.60;;
13720;SDS011;6932;51.438;5.470;2022-12-19T08:06:52;5.63;;;3.60;;
13720;SDS011;6932;51.438;5.470;2022-12-19T08:09:18;6.23;;;3.43;;
13720;SDS011;6932;51.438;5.470;2022-12-19T08:11:43;6.17;;;3.40;;
13720;SDS011;6932;51.438;5.470;2022-12-19T08:14:09;6.37;;;3.83;;
13720;SDS011;6932;51.438;5.470;2022-12-19T08:16:35;6.23;;;3.50;;
13720;SDS011;6932;51.438;5.470;2022-12-19T08:19:01;4.93;;;3.40;;
13720;SDS011;6932;51.438;5.470;2022-12-19T08:21:28;5.63;;;3.53;;
13720;SDS011;6932;51.438;5.470;2022-12-19T08:23:54;6.63;;;3.50;;
13720;SDS011;6932;51.438;5.470;2022-12-19T08:26:20;5.63;;;3.50;;
13720;SDS011;6932;51.438;5.470;2022-12-19T08:28:54;5.60;;;3.40;;
13720;SDS011;6932;51.438;5.470;2022-12-19T08:31:22;5.07;;;3.20;;
13720;SDS011;6932;51.438;5.470;2022-12-19T08:33:52;4.97;;;3.23;;
13720;SDS011;6932;51.438;5.470;2022-12-19T08:36:20;5.57;;;3.40;;
13720;SDS011;6932;51.438;5.470;2022-12-19T08:38:47;6.07;;;3.70;;
13720;SDS011;6932;51.438;5.470;2022-12-19T08:41:15;5.27;;;3.30;;
13720;SDS011;6932;51.438;5.470;2022-12-19T08:43:41;5.67;;;3.60;;
13720;SDS011;6932;51.438;5.470;2022-12-19T08:46:13;5.03;;;3.40;;
13720;SDS011;6932;51.438;5.470;2022-12-19T08:48:45;5.47;;;3.20;;
13720;SDS011;6932;51.438;5.470;2022-12-19T08:51:11;5.37;;;3.40;;
13720;SDS011;6932;51.438;5.470;2022-12-19T08:53:39;5.40;;;3.30;;
13720;SDS011;6932;51.438;5.470;2022-12-19T08:56:12;6.47;;;3.20;;
13720;SDS011;6932;51.438;5.470;2022-12-19T08:58:41;4.87;;;3.10;;
13720;SDS011;6932;51.438;5.470;2022-12-19T09:01:09;6.57;;;3.37;;
13720;SDS011;6932;51.438;5.470;2022-12-19T09:03:40;5.93;;;3.20;;
13720;SDS011;6932;51.438;5.470;2022-12-19T09:06:07;5.27;;;3.20;;
13720;SDS011;6932;51.438;5.470;2022-12-19T09:08:35;5.33;;;3.20;;
13720;SDS011;6932;51.438;5.470;2022-12-19T09:11:05;4.60;;;3.03;;
13720;SDS011;6932;51.438;5.470;2022-12-19T09:13:35;5.73;;;3.23;;
13720;SDS011;6932;51.438;5.470;2022-12-19T09:16:07;5.30;;;3.00;;
13720;SDS011;6932;51.438;5.470;2022-12-19T09:18:37;4.57;;;2.93;;
13720;SDS011;6932;51.438;5.470;2022-12-19T09:21:04;5.30;;;3.30;;
13720;SDS011;6932;51.438;5.470;2022-12-19T09:23:30;5.53;;;3.30;;
13720;SDS011;6932;51.438;5.470;2022-12-19T09:26:00;5.00;;;3.20;;
13720;SDS011;6932;51.438;5.470;2022-12-19T09:28:32;5.07;;;3.20;;
13720;SDS011;6932;51.438;5.470;2022-12-19T09:31:00;5.17;;;3.10;;
13720;SDS011;6932;51.438;5.470;2022-12-19T09:33:30;4.10;;;3.07;;
13720;SDS011;6932;51.438;5.470;2022-12-19T09:35:59;5.73;;;3.23;;
13720;SDS011;6932;51.438;5.470;2022-12-19T09:38:27;4.13;;;3.00;;
13720;SDS011;6932;51.438;5.470;2022-12-19T09:40:58;6.23;;;2.97;;
13720;SDS011;6932;51.438;5.470;2022-12-19T09:44:14;6.80;;;3.30;;
13720;SDS011;6932;51.438;5.470;2022-12-19T09:47:04;4.90;;;3.30;;
13720;SDS011;6932;51.438;5.470;2022-12-19T09:49:40;4.63;;;2.90;;
13720;SDS011;6932;51.438;5.470;2022-12-19T09:55:03;4.80;;;3.10;;
13720;SDS011;6932;51.438;5.470;2022-12-19T09:57:43;4.77;;;3.00;;
13720;SDS011;6932;51.438;5.470;2022-12-19T10:00:20;4.73;;;3.10;;
13720;SDS011;6932;51.438;5.470;2022-12-19T10:05:22;5.33;;;3.13;;
13720;SDS011;6932;51.438;5.470;2022-12-19T10:08:30;6.27;;;3.00;;
13720;SDS011;6932;51.438;5.470;2022-12-19T10:14:07;4.60;;;2.93;;
13720;SDS011;6932;51.438;5.470;2022-12-19T10:16:58;4.67;;;3.07;;
13720;SDS011;6932;51.438;5.470;2022-12-19T10:27:46;5.23;;;3.00;;
13720;SDS011;6932;51.438;5.470;2022-12-19T10:30:22;4.47;;;3.00;;
13720;SDS011;6932;51.438;5.470;2022-12-19T10:35:51;4.77;;;2.70;;
13720;SDS011;6932;51.438;5.470;2022-12-19T10:44:02;4.83;;;2.80;;
13720;SDS011;6932;51.438;5.470;2022-12-19T10:49:11;3.53;;;2.70;;
13720;SDS011;6932;51.438;5.470;2022-12-19T10:54:24;4.73;;;2.90;;
13720;SDS011;6932;51.438;5.470;2022-12-19T10:59:59;5.07;;;3.00;;
13720;SDS011;6932;51.438;5.470;2022-12-19T11:02:38;4.50;;;3.00;;
13720;SDS011;6932;51.438;5.470;2022-12-19T11:05:18;4.53;;;2.90;;
13720;SDS011;6932;51.438;5.470;2022-12-19T11:10:45;3.60;;;2.67;;
13720;SDS011;6932;51.438;5.470;2022-12-19T11:16:02;4.07;;;2.80;;
13720;SDS011;6932;51.438;5.470;2022-12-19T11:18:43;6.40;;;3.00;;
13720;SDS011;6932;51.438;5.470;2022-12-19T11:23:41;5.10;;;2.80;;
13720;SDS011;6932;51.438;5.470;2022-12-19T11:29:25;5.03;;;2.93;;
13720;SDS011;6932;51.438;5.470;2022-12-19T11:32:20;3.83;;;2.83;;
13720;SDS011;6932;51.438;5.470;2022-12-19T11:34:49;4.20;;;2.70;;
13720;SDS011;6932;51.438;5.470;2022-12-19T11:39:56;4.27;;;2.70;;
13720;SDS011;6932;51.438;5.470;2022-12-19T11:42:33;5.13;;;2.77;;
13720;SDS011;6932;51.438;5.470;2022-12-19T11:53:52;4.90;;;2.80;;
13720;SDS011;6932;51.438;5.470;2022-12-19T11:56:30;4.77;;;3.07;;
13720;SDS011;6932;51.438;5.470;2022-12-19T11:58:57;4.33;;;2.90;;
13720;SDS011;6932;51.438;5.470;2022-12-19T12:04:31;5.40;;;2.90;;
13720;SDS011;6932;51.438;5.470;2022-12-19T12:07:05;4.30;;;2.87;;
13720;SDS011;6932;51.438;5.470;2022-12-19T12:09:38;4.87;;;2.80;;
13720;SDS011;6932;51.438;5.470;2022-12-19T12:18:53;4.67;;;2.70;;
13720;SDS011;6932;51.438;5.470;2022-12-19T12:24:40;4.53;;;2.80;;
13720;SDS011;6932;51.438;5.470;2022-12-19T12:30:25;5.00;;;2.70;;
13720;SDS011;6932;51.438;5.470;2022-12-19T12:33:26;4.83;;;2.93;;
13720;SDS011;6932;51.438;5.470;2022-12-19T12:36:14;4.73;;;3.00;;
13720;SDS011;6932;51.438;5.470;2022-12-19T12:44:41;4.50;;;2.50;;
13720;SDS011;6932;51.438;5.470;2022-12-19T12:55:02;4.93;;;2.70;;
13720;SDS011;6932;51.438;5.470;2022-12-19T12:57:36;4.23;;;2.50;;
13720;SDS011;6932;51.438;5.470;2022-12-19T13:00:16;4.00;;;2.30;;
13720;SDS011;6932;51.438;5.470;2022-12-19T13:02:45;3.90;;;2.63;;
13720;SDS011;6932;51.438;5.470;2022-12-19T13:14:01;3.47;;;2.50;;
13720;SDS011;6932;51.438;5.470;2022-12-19T13:19:20;3.80;;;2.20;;
13720;SDS011;6932;51.438;5.470;2022-12-19T13:40:12;4.70;;;2.67;;
13720;SDS011;6932;51.438;5.470;2022-12-19T13:42:53;5.50;;;2.53;;
13720;SDS011;6932;51.438;5.470;2022-12-19T13:48:27;4.60;;;2.60;;
13720;SDS011;6932;51.438;5.470;2022-12-19T13:51:05;4.93;;;2.33;;
13720;SDS011;6932;51.438;5.470;2022-12-19T13:53:35;3.67;;;2.27;;
13720;SDS011;6932;51.438;5.470;2022-12-19T13:56:03;5.40;;;2.80;;
13720;SDS011;6932;51.438;5.470;2022-12-19T14:01:28;4.43;;;2.60;;
13720;SDS011;6932;51.438;5.470;2022-12-19T14:04:07;4.43;;;2.73;;
13720;SDS011;6932;51.438;5.470;2022-12-19T14:06:50;3.33;;;2.40;;
13720;SDS011;6932;51.438;5.470;2022-12-19T14:09:33;3.87;;;2.30;;
13720;SDS011;6932;51.438;5.470;2022-12-19T14:12:05;3.00;;;2.47;;
13720;SDS011;6932;51.438;5.470;2022-12-19T14:18:00;4.13;;;2.70;;
13720;SDS011;6932;51.438;5.470;2022-12-19T14:20:39;4.70;;;2.37;;
13720;SDS011;6932;51.438;5.470;2022-12-19T14:23:05;4.57;;;2.30;;
13720;SDS011;6932;51.438;5.470;2022-12-19T14:25:52;4.33;;;2.60;;
13720;SDS011;6932;51.438;5.470;2022-12-19T14:29:02;3.63;;;2.40;;
13720;SDS011;6932;51.438;5.470;2022-12-19T14:31:16;4.40;;;2.37;;
13720;SDS011;6932;51.438;5.470;2022-12-19T14:33:44;3.83;;;2.10;;
13720;SDS011;6932;51.438;5.470;2022-12-19T14:36:13;4.80;;;2.60;;
13720;SDS011;6932;51.438;5.470;2022-12-19T14:38:58;3.80;;;2.30;;
13720;SDS011;6932;51.438;5.470;2022-12-19T14:44:15;4.10;;;2.63;;
13720;SDS011;6932;51.438;5.470;2022-12-19T14:46:43;3.53;;;2.53;;
13720;SDS011;6932;51.438;5.470;2022-12-19T14:49:35;5.27;;;2.57;;
13720;SDS011;6932;51.438;5.470;2022-12-19T14:52:02;3.90;;;2.37;;
13720;SDS011;6932;51.438;5.470;2022-12-19T14:54:29;4.60;;;2.40;;
13720;SDS011;6932;51.438;5.470;2022-12-19T14:56:58;4.53;;;2.23;;
13720;SDS011;6932;51.438;5.470;2022-12-19T15:07:02;2.73;;;2.10;;
13720;SDS011;6932;51.438;5.470;2022-12-19T15:12:28;7.50;;;2.50;;
13720;SDS011;6932;51.438;5.470;2022-12-19T15:15:40;3.10;;;2.23;;
13720;SDS011;6932;51.438;5.470;2022-12-19T15:20:57;4.63;;;2.47;;
13720;SDS011;6932;51.438;5.470;2022-12-19T15:23:32;3.83;;;2.37;;
13720;SDS011;6932;51.438;5.470;2022-12-19T15:26:00;3.30;;;2.30;;
13720;SDS011;6932;51.438;5.470;2022-12-19T15:28:36;3.93;;;2.40;;
13720;SDS011;6932;51.438;5.470;2022-12-19T15:31:19;3.10;;;2.30;;
13720;SDS011;6932;51.438;5.470;2022-12-19T15:36:34;4.30;;;2.37;;
13720;SDS011;6932;51.438;5.470;2022-12-19T15:39:01;4.47;;;2.23;;
13720;SDS011;6932;51.438;5.470;2022-12-19T15:41:27;7.73;;;2.30;;
13720;SDS011;6932;51.438;5.470;2022-12-19T15:43:54;3.27;;;2.10;;
13720;SDS011;6932;51.438;5.470;2022-12-19T15:46:22;3.70;;;2.23;;
13720;SDS011;6932;51.438;5.470;2022-12-19T15:48:54;3.60;;;2.30;;
13720;SDS011;6932;51.438;5.470;2022-12-19T15:51:19;4.67;;;2.40;;
13720;SDS011;6932;51.438;5.470;2022-12-19T15:53:45;3.80;;;2.33;;
13720;SDS011;6932;51.438;5.470;2022-12-19T15:59:21;5.23;;;2.40;;
13720;SDS011;6932;51.438;5.470;2022-12-19T16:02:07;4.77;;;2.40;;
13720;SDS011;6932;51.438;5.470;2022-12-19T16:04:42;3.77;;;2.50;;
13720;SDS011;6932;51.438;5.470;2022-12-19T16:07:14;3.63;;;2.57;;
13720;SDS011;6932;51.438;5.470;2022-12-19T16:09:49;4.13;;;2.50;;
13720;SDS011;6932;51.438;5.470;2022-12-19T16:12:35;4.07;;;2.50;;
13720;SDS011;6932;51.438;5.470;2022-12-19T16:15:05;3.93;;;2.40;;
13720;SDS011;6932;51.438;5.470;2022-12-19T16:17:53;6.60;;;2.70;;
13720;SDS011;6932;51.438;5.470;2022-12-19T16:20:26;4.43;;;2.43;;
13720;SDS011;6932;51.438;5.470;2022-12-19T16:22:55;3.23;;;2.20;;
13720;SDS011;6932;51.438;5.470;2022-12-19T16:25:22;5.30;;;2.43;;
13720;SDS011;6932;51.438;5.470;2022-12-19T16:27:57;3.33;;;2.40;;
13720;SDS011;6932;51.438;5.470;2022-12-19T16:30:27;3.80;;;2.50;;
13720;SDS011;6932;51.438;5.470;2022-12-19T16:32:57;4.57;;;2.70;;
13720;SDS011;6932;51.438;5.470;2022-12-19T16:35:24;4.03;;;2.50;;
13720;SDS011;6932;51.438;5.470;2022-12-19T16:37:52;4.60;;;2.70;;
13720;SDS011;6932;51.438;5.470;2022-12-19T16:40:19;4.30;;;2.67;;
13720;SDS011;6932;51.438;5.470;2022-12-19T16:42:48;3.57;;;2.30;;
13720;SDS011;6932;51.438;5.470;2022-12-19T16:45:19;4.20;;;2.57;;
13720;SDS011;6932;51.438;5.470;2022-12-19T16:47:48;4.10;;;2.70;;
13720;SDS011;6932;51.438;5.470;2022-12-19T16:50:16;6.33;;;2.90;;
13720;SDS011;6932;51.438;5.470;2022-12-19T16:52:49;4.70;;;2.80;;
13720;SDS011;6932;51.438;5.470;2022-12-19T16:55:16;5.77;;;2.70;;
13720;SDS011;6932;51.438;5.470;2022-12-19T16:57:43;3.63;;;2.40;;
13720;SDS011;6932;51.438;5.470;2022-12-19T17:00:15;4.00;;;2.70;;
13720;SDS011;6932;51.438;5.470;2022-12-19T17:02:45;7.50;;;2.83;;
13720;SDS011;6932;51.438;5.470;2022-12-19T17:05:30;5.23;;;3.10;;
13720;SDS011;6932;51.438;5.470;2022-12-19T17:07:57;4.70;;;2.40;;
13720;SDS011;6932;51.438;5.470;2022-12-19T17:10:26;6.37;;;3.10;;
13720;SDS011;6932;51.438;5.470;2022-12-19T17:12:57;4.53;;;2.70;;
13720;SDS011;6932;51.438;5.470;2022-12-19T17:15:34;4.17;;;2.40;;
13720;SDS011;6932;51.438;5.470;2022-12-19T17:18:03;4.07;;;2.63;;
13720;SDS011;6932;51.438;5.470;2022-12-19T17:20:39;5.47;;;2.47;;
13720;SDS011;6932;51.438;5.470;2022-12-19T17:23:12;3.70;;;2.13;;
13720;SDS011;6932;51.438;5.470;2022-12-19T17:25:42;3.67;;;2.23;;
13720;SDS011;6932;51.438;5.470;2022-12-19T17:28:08;4.23;;;2.40;;
13720;SDS011;6932;51.438;5.470;2022-12-19T17:30:34;4.57;;;2.40;;
13720;SDS011;6932;51.438;5.470;2022-12-19T17:33:01;4.10;;;2.40;;
13720;SDS011;6932;51.438;5.470;2022-12-19T17:35:31;3.87;;;2.60;;
13720;SDS011;6932;51.438;5.470;2022-12-19T17:38:00;3.57;;;2.30;;
13720;SDS011;6932;51.438;5.470;2022-12-19T17:40:28;3.80;;;2.30;;
13720;SDS011;6932;51.438;5.470;2022-12-19T17:42:57;5.03;;;2.50;;
13720;SDS011;6932;51.438;5.470;2022-12-19T17:45:24;3.90;;;2.27;;
13720;SDS011;6932;51.438;5.470;2022-12-19T17:47:53;3.77;;;2.47;;
13720;SDS011;6932;51.438;5.470;2022-12-19T17:50:24;4.77;;;2.53;;
13720;SDS011;6932;51.438;5.470;2022-12-19T17:52:53;4.97;;;2.40;;
13720;SDS011;6932;51.438;5.470;2022-12-19T17:57:52;3.57;;;2.40;;
13720;SDS011;6932;51.438;5.470;2022-12-19T18:00:20;4.50;;;2.40;;
13720;SDS011;6932;51.438;5.470;2022-12-19T18:02:52;4.00;;;2.70;;
13720;SDS011;6932;51.438;5.470;2022-12-19T18:05:24;3.60;;;2.40;;
13720;SDS011;6932;51.438;5.470;2022-12-19T18:07:53;3.00;;;2.40;;
13720;SDS011;6932;51.438;5.470;2022-12-19T18:10:21;5.00;;;2.60;;
13720;SDS011;6932;51.438;5.470;2022-12-19T18:12:51;6.03;;;2.70;;
13720;SDS011;6932;51.438;5.470;2022-12-19T18:15:18;3.97;;;2.50;;
13720;SDS011;6932;51.438;5.470;2022-12-19T18:17:46;6.00;;;3.20;;
13720;SDS011;6932;51.438;5.470;2022-12-19T18:22:53;5.00;;;3.00;;
13720;SDS011;6932;51.438;5.470;2022-12-19T18:25:25;4.57;;;2.70;;
13720;SDS011;6932;51.438;5.470;2022-12-19T18:27:56;3.97;;;2.43;;
13720;SDS011;6932;51.438;5.470;2022-12-19T18:30:22;5.37;;;2.60;;
13720;SDS011;6932;51.438;5.470;2022-12-19T18:32:56;4.40;;;2.30;;
13720;SDS011;6932;51.438;5.470;2022-12-19T18:38:12;4.93;;;2.97;;